Карточка аэропорта UMKK

Внимание!
Информация на этой странице в стадии наполнения.
Если вы не увидели какой-то информации, или заметили неточность - пожалуйста сообщите нам!
Спасибо!
Команда RU-STAFF
Название аэропортаХраброво
Название аэропорта (англ.)Khrabrovo
Превышение43 ft. (13.1 m.)
Координаты54°53.4', 20°35.55'
Высота перехода4000ft
Эшелон переходаFL50 (QNH>=1013hPa); FL60 (QNH<1013hPa); FL50 (QNH<977hPa);
Коды ответчика6620-6637
Зона ОрВДКалининград РПИ (UMKK)
Данные METARUMKK 100800Z 00000MPS 8000 BCFG FEW001 BKN015 M06/M06 Q1010 R24/690195 NOSIG RMK QBB050 OBST OBSC QFE757/1009
Проноз погоды (TAF)UMKK 100529Z 1006/1106 VRB01MPS 0100 FZFG VV001 TEMPO 1006/1009 0300 FZFG BKN002 BECMG 1009/1012 5000 BR BKN002 BKN010 TEMPO 1015/1024 0500 FZFG BKN002 BECMG 1100/1102 BKN016
NOTAMshow/hide NOTAM
AWOS   TABLE

Информация о ВПП

ВПП Длина ВПП (м.) Покрытие Курс ВПП Частота ILS
063350Асфальтобетон60110.3
243350Асфальтобетон240109.5

Диспетчерские позиции

Позывной Наименование органа УВД Частота
UMKK_APPКалининград-Подход126.0
UMKK_TWRКалининград-Вышка127.2



Спутниковое изображение